LOT8TF EPLB-EPWA
Flight info
| Callsign | LOT8TF |
|---|---|
| Flight time | 0h 28m |
| Altitude | 20000 |
| Route | VADOL L621 LIMVI |
| Aircraft | E195/M-SDE3GILORVW/S |
Departure
| Time | 2026-05-06 10:33 |
|---|---|
| Airport | Lublin Airport (EPLB) |
Arrival
| Time | 2026-05-06 11:02 |
|---|---|
| Airport | Warsaw Chopin Airport (EPWA) |
| Time | Latitude | Longitude | Altitude | Speed | Heading |
|---|---|---|---|---|---|
| 2026-05-06 10:15 | 51.23705 | 22.71504 | 637 ft | 0 kts | 166° |
| 2026-05-06 10:25 | 51.23708 | 22.71502 | 637 ft | 3 kts | 167° |
| 2026-05-06 10:25 | 51.23727 | 22.71496 | 645 ft | 4 kts | 191° |
| 2026-05-06 10:25 | 51.23730 | 22.71503 | 638 ft | 4 kts | 256° |
| 2026-05-06 10:25 | 51.23736 | 22.71541 | 640 ft | 4 kts | 258° |
| 2026-05-06 10:26 | 51.23741 | 22.71574 | 639 ft | 4 kts | 256° |
| 2026-05-06 10:26 | 51.23743 | 22.71588 | 641 ft | 0 kts | 256° |
| 2026-05-06 10:28 | 51.23742 | 22.71583 | 642 ft | 2 kts | 258° |
| 2026-05-06 10:28 | 51.23737 | 22.71537 | 640 ft | 5 kts | 259° |
| 2026-05-06 10:29 | 51.23737 | 22.71479 | 639 ft | 4 kts | 290° |
| 2026-05-06 10:29 | 51.23769 | 22.71450 | 638 ft | 6 kts | 341° |
| 2026-05-06 10:29 | 51.23825 | 22.71425 | 637 ft | 10 kts | 348° |
| 2026-05-06 10:29 | 51.23891 | 22.71402 | 639 ft | 10 kts | 348° |
| 2026-05-06 10:30 | 51.23969 | 22.71375 | 639 ft | 13 kts | 347° |
| 2026-05-06 10:30 | 51.24029 | 22.71441 | 636 ft | 13 kts | 67° |
| 2026-05-06 10:30 | 51.24052 | 22.71593 | 635 ft | 19 kts | 78° |
| 2026-05-06 10:30 | 51.24084 | 22.71842 | 638 ft | 24 kts | 79° |
| 2026-05-06 10:31 | 51.24126 | 22.72093 | 636 ft | 23 kts | 73° |
| 2026-05-06 10:31 | 51.24162 | 22.72346 | 638 ft | 23 kts | 75° |
| 2026-05-06 10:31 | 51.24197 | 22.72593 | 636 ft | 23 kts | 76° |
| 2026-05-06 10:31 | 51.24233 | 22.72836 | 641 ft | 23 kts | 77° |
| 2026-05-06 10:32 | 51.24267 | 22.73015 | 636 ft | 11 kts | 55° |
| 2026-05-06 10:32 | 51.24288 | 22.73089 | 638 ft | 2 kts | 134° |
| 2026-05-06 10:32 | 51.24277 | 22.73084 | 634 ft | 2 kts | 199° |
| 2026-05-06 10:32 | 51.24268 | 22.73063 | 634 ft | 3 kts | 245° |
| 2026-05-06 10:33 | 51.24232 | 22.72821 | 644 ft | 52 kts | 258° |
| 2026-05-06 10:33 | 51.24105 | 22.71938 | 638 ft | 110 kts | 258° |
| 2026-05-06 10:33 | 51.23905 | 22.70522 | 792 ft | 141 kts | 253° |
| 2026-05-06 10:33 | 51.23702 | 22.68934 | 1289 ft | 152 kts | 254° |
| 2026-05-06 10:34 | 51.23477 | 22.67291 | 2050 ft | 153 kts | 249° |
| 2026-05-06 10:34 | 51.23174 | 22.65542 | 2612 ft | 173 kts | 252° |
| 2026-05-06 10:34 | 51.22895 | 22.63629 | 3421 ft | 176 kts | 252° |
| 2026-05-06 10:34 | 51.22715 | 22.62339 | 3946 ft | 180 kts | 252° |
| 2026-05-06 10:35 | 51.22418 | 22.60264 | 4428 ft | 202 kts | 253° |
| 2026-05-06 10:35 | 51.22102 | 22.57988 | 4986 ft | 215 kts | 256° |
| 2026-05-06 10:35 | 51.22063 | 22.55585 | 5727 ft | 216 kts | 269° |
| 2026-05-06 10:35 | 51.22208 | 22.53157 | 6422 ft | 223 kts | 272° |
| 2026-05-06 10:36 | 51.22482 | 22.50599 | 6905 ft | 247 kts | 280° |
| 2026-05-06 10:36 | 51.22932 | 22.47846 | 7322 ft | 267 kts | 280° |
| 2026-05-06 10:36 | 51.23391 | 22.44988 | 8300 ft | 261 kts | 280° |
| 2026-05-06 10:36 | 51.23855 | 22.42105 | 8823 ft | 278 kts | 281° |
| 2026-05-06 10:37 | 51.24411 | 22.39155 | 9789 ft | 271 kts | 284° |
| 2026-05-06 10:37 | 51.25050 | 22.36301 | 10451 ft | 282 kts | 289° |
| 2026-05-06 10:37 | 51.25932 | 22.33392 | 10798 ft | 299 kts | 292° |
| 2026-05-06 10:37 | 51.26804 | 22.30314 | 11305 ft | 307 kts | 287° |
| 2026-05-06 10:38 | 51.27485 | 22.27072 | 12020 ft | 308 kts | 282° |
| 2026-05-06 10:38 | 51.28038 | 22.23755 | 12761 ft | 310 kts | 280° |
| 2026-05-06 10:38 | 51.28393 | 22.20361 | 13466 ft | 311 kts | 272° |
| 2026-05-06 10:38 | 51.28614 | 22.16903 | 14151 ft | 314 kts | 274° |
| 2026-05-06 10:39 | 51.29291 | 22.13554 | 14730 ft | 326 kts | 297° |
| 2026-05-06 10:39 | 51.30702 | 22.10664 | 15362 ft | 334 kts | 309° |
| 2026-05-06 10:39 | 51.32400 | 22.08078 | 15958 ft | 339 kts | 315° |
| 2026-05-06 10:39 | 51.34230 | 22.05665 | 16564 ft | 344 kts | 318° |
| 2026-05-06 10:40 | 51.36259 | 22.03565 | 17165 ft | 350 kts | 326° |
| 2026-05-06 10:40 | 51.38350 | 22.01552 | 17757 ft | 352 kts | 324° |
| 2026-05-06 10:40 | 51.40479 | 21.99550 | 18356 ft | 356 kts | 327° |
| 2026-05-06 10:40 | 51.42647 | 21.97591 | 18928 ft | 359 kts | 326° |
| 2026-05-06 10:41 | 51.44798 | 21.95636 | 19466 ft | 362 kts | 327° |
| 2026-05-06 10:41 | 51.46986 | 21.93645 | 19946 ft | 358 kts | 326° |
| 2026-05-06 10:41 | 51.49173 | 21.91654 | 20088 ft | 362 kts | 327° |
| 2026-05-06 10:41 | 51.51374 | 21.89666 | 20145 ft | 364 kts | 327° |
| 2026-05-06 10:42 | 51.53593 | 21.87651 | 20186 ft | 372 kts | 327° |
| 2026-05-06 10:42 | 51.55876 | 21.85574 | 20199 ft | 378 kts | 327° |
| 2026-05-06 10:42 | 51.58174 | 21.83487 | 20207 ft | 378 kts | 327° |
| 2026-05-06 10:42 | 51.60468 | 21.81396 | 20192 ft | 378 kts | 327° |
| 2026-05-06 10:43 | 51.62762 | 21.79301 | 20192 ft | 378 kts | 327° |
| 2026-05-06 10:43 | 51.65051 | 21.77215 | 20190 ft | 378 kts | 327° |
| 2026-05-06 10:43 | 51.67337 | 21.75119 | 20195 ft | 378 kts | 327° |
| 2026-05-06 10:44 | 51.71946 | 21.71010 | 19954 ft | 380 kts | 332° |
| 2026-05-06 10:44 | 51.74395 | 21.69484 | 19974 ft | 383 kts | 338° |
| 2026-05-06 10:44 | 51.76940 | 21.68169 | 19957 ft | 383 kts | 340° |
| 2026-05-06 10:44 | 51.79541 | 21.67184 | 19964 ft | 385 kts | 347° |
| 2026-05-06 10:45 | 51.82175 | 21.66386 | 19971 ft | 386 kts | 346° |
| 2026-05-06 10:45 | 51.84817 | 21.65620 | 19964 ft | 385 kts | 347° |
| 2026-05-06 10:45 | 51.87462 | 21.64864 | 19963 ft | 385 kts | 347° |
| 2026-05-06 10:45 | 51.90104 | 21.64108 | 19961 ft | 385 kts | 347° |
| 2026-05-06 10:46 | 51.92786 | 21.63343 | 19971 ft | 386 kts | 347° |
| 2026-05-06 10:46 | 51.95438 | 21.62585 | 19955 ft | 386 kts | 347° |
| 2026-05-06 10:46 | 51.98108 | 21.61822 | 19961 ft | 385 kts | 347° |
| 2026-05-06 10:46 | 52.00744 | 21.61064 | 19975 ft | 386 kts | 347° |
| 2026-05-06 10:47 | 52.03384 | 21.60305 | 19965 ft | 385 kts | 347° |
| 2026-05-06 10:47 | 52.06029 | 21.59546 | 19953 ft | 385 kts | 347° |
| 2026-05-06 10:47 | 52.08668 | 21.58785 | 19955 ft | 385 kts | 347° |
| 2026-05-06 10:47 | 52.11354 | 21.58012 | 19966 ft | 386 kts | 347° |
| 2026-05-06 10:48 | 52.13998 | 21.57248 | 19959 ft | 385 kts | 346° |
| 2026-05-06 10:48 | 52.16638 | 21.56452 | 19916 ft | 384 kts | 343° |
| 2026-05-06 10:48 | 52.19032 | 21.54858 | 19422 ft | 375 kts | 323° |
| 2026-05-06 10:48 | 52.20882 | 21.51970 | 18825 ft | 365 kts | 301° |
| 2026-05-06 10:49 | 52.21895 | 21.48256 | 18252 ft | 356 kts | 282° |
| 2026-05-06 10:49 | 52.22220 | 21.44313 | 17644 ft | 350 kts | 270° |
| 2026-05-06 10:49 | 52.22276 | 21.40349 | 17010 ft | 346 kts | 268° |
| 2026-05-06 10:49 | 52.22396 | 21.36535 | 16365 ft | 329 kts | 273° |
| 2026-05-06 10:50 | 52.22621 | 21.32857 | 15713 ft | 315 kts | 272° |
| 2026-05-06 10:50 | 52.22830 | 21.29405 | 15085 ft | 306 kts | 272° |
| 2026-05-06 10:50 | 52.23034 | 21.25970 | 14471 ft | 304 kts | 273° |
| 2026-05-06 10:50 | 52.23338 | 21.22599 | 13876 ft | 295 kts | 275° |
| 2026-05-06 10:51 | 52.23649 | 21.19335 | 13239 ft | 286 kts | 275° |
| 2026-05-06 10:51 | 52.23942 | 21.16165 | 12569 ft | 280 kts | 275° |
| 2026-05-06 10:51 | 52.24239 | 21.13060 | 12010 ft | 272 kts | 275° |
| 2026-05-06 10:51 | 52.24528 | 21.10049 | 11884 ft | 268 kts | 275° |
| 2026-05-06 10:52 | 52.24811 | 21.07047 | 11818 ft | 270 kts | 275° |
| 2026-05-06 10:52 | 52.25095 | 21.04016 | 11781 ft | 270 kts | 275° |
| 2026-05-06 10:52 | 52.25388 | 21.00974 | 11725 ft | 273 kts | 276° |
| 2026-05-06 10:52 | 52.25806 | 20.97907 | 11312 ft | 280 kts | 281° |
| 2026-05-06 10:53 | 52.26343 | 20.94829 | 10842 ft | 284 kts | 284° |
| 2026-05-06 10:53 | 52.27064 | 20.91921 | 10350 ft | 275 kts | 290° |
| 2026-05-06 10:53 | 52.27850 | 20.89070 | 9856 ft | 272 kts | 290° |
| 2026-05-06 10:53 | 52.28629 | 20.86250 | 9292 ft | 272 kts | 290° |
| 2026-05-06 10:54 | 52.29416 | 20.83466 | 8647 ft | 269 kts | 291° |
| 2026-05-06 10:54 | 52.30192 | 20.80693 | 8000 ft | 266 kts | 290° |
| 2026-05-06 10:54 | 52.30949 | 20.77993 | 7386 ft | 264 kts | 291° |
| 2026-05-06 10:54 | 52.31710 | 20.75269 | 6806 ft | 263 kts | 290° |
| 2026-05-06 10:55 | 52.32482 | 20.72552 | 6201 ft | 261 kts | 291° |
| 2026-05-06 10:55 | 52.33227 | 20.69852 | 5570 ft | 260 kts | 290° |
| 2026-05-06 10:55 | 52.33969 | 20.67124 | 5127 ft | 264 kts | 291° |
| 2026-05-06 10:55 | 52.34641 | 20.64400 | 5059 ft | 254 kts | 278° |
| 2026-05-06 10:56 | 52.34529 | 20.61586 | 5041 ft | 248 kts | 246° |
| 2026-05-06 10:56 | 52.33528 | 20.59412 | 4866 ft | 240 kts | 214° |
| 2026-05-06 10:56 | 52.31967 | 20.58571 | 4616 ft | 240 kts | 180° |
| 2026-05-06 10:56 | 52.30379 | 20.59367 | 4358 ft | 244 kts | 147° |
| 2026-05-06 10:57 | 52.29174 | 20.61318 | 4176 ft | 242 kts | 136° |
| 2026-05-06 10:57 | 52.27896 | 20.63015 | 4102 ft | 233 kts | 150° |
| 2026-05-06 10:57 | 52.26539 | 20.64406 | 4055 ft | 233 kts | 146° |
| 2026-05-06 10:57 | 52.25307 | 20.66160 | 4048 ft | 229 kts | 132° |
| 2026-05-06 10:58 | 52.24523 | 20.68336 | 3863 ft | 224 kts | 117° |
| 2026-05-06 10:58 | 52.23873 | 20.70612 | 3549 ft | 216 kts | 119° |
| 2026-05-06 10:58 | 52.23225 | 20.72769 | 3223 ft | 209 kts | 117° |
| 2026-05-06 10:58 | 52.22642 | 20.74950 | 2984 ft | 207 kts | 116° |
| 2026-05-06 10:59 | 52.22061 | 20.77069 | 2699 ft | 200 kts | 117° |
| 2026-05-06 10:59 | 52.21488 | 20.79011 | 2496 ft | 183 kts | 117° |
| 2026-05-06 10:59 | 52.20999 | 20.80867 | 2167 ft | 176 kts | 115° |
| 2026-05-06 10:59 | 52.20546 | 20.82654 | 1963 ft | 164 kts | 117° |
| 2026-05-06 11:00 | 52.20068 | 20.84313 | 1696 ft | 159 kts | 120° |
| 2026-05-06 11:00 | 52.19585 | 20.85923 | 1414 ft | 156 kts | 120° |
| 2026-05-06 11:00 | 52.19138 | 20.87519 | 1128 ft | 154 kts | 115° |
| 2026-05-06 11:00 | 52.18710 | 20.89104 | 987 ft | 153 kts | 120° |
| 2026-05-06 11:01 | 52.18255 | 20.90703 | 903 ft | 158 kts | 116° |
| 2026-05-06 11:01 | 52.17811 | 20.92336 | 722 ft | 155 kts | 118° |
| 2026-05-06 11:01 | 52.17363 | 20.93928 | 482 ft | 153 kts | 119° |
| 2026-05-06 11:01 | 52.16933 | 20.95443 | 353 ft | 138 kts | 119° |
| 2026-05-06 11:02 | 52.16614 | 20.96566 | 352 ft | 66 kts | 114° |
| 2026-05-06 11:02 | 52.16517 | 20.96959 | 345 ft | 31 kts | 103° |
| 2026-05-06 11:02 | 52.16513 | 20.97204 | 348 ft | 18 kts | 84° |
| 2026-05-06 11:02 | 52.16551 | 20.97357 | 349 ft | 7 kts | 6° |
| 2026-05-06 11:03 | 52.16593 | 20.97329 | 350 ft | 8 kts | 333° |
| 2026-05-06 11:03 | 52.16653 | 20.97278 | 351 ft | 10 kts | 332° |
| 2026-05-06 11:03 | 52.16720 | 20.97219 | 352 ft | 13 kts | 332° |
| 2026-05-06 11:03 | 52.16799 | 20.97149 | 351 ft | 14 kts | 332° |
| 2026-05-06 11:04 | 52.16891 | 20.97070 | 348 ft | 15 kts | 332° |
| 2026-05-06 11:04 | 52.16989 | 20.96986 | 350 ft | 17 kts | 332° |
| 2026-05-06 11:04 | 52.17094 | 20.96893 | 353 ft | 18 kts | 332° |
| 2026-05-06 11:04 | 52.17206 | 20.96796 | 354 ft | 19 kts | 332° |
| 2026-05-06 11:05 | 52.17324 | 20.96692 | 356 ft | 19 kts | 332° |
| 2026-05-06 11:05 | 52.17443 | 20.96589 | 354 ft | 15 kts | 331° |
| 2026-05-06 11:05 | 52.17495 | 20.96578 | 351 ft | 12 kts | 18° |
| 2026-05-06 11:05 | 52.17549 | 20.96698 | 352 ft | 14 kts | 57° |
| 2026-05-06 11:06 | 52.17599 | 20.96835 | 353 ft | 14 kts | 60° |
| 2026-05-06 11:06 | 52.17597 | 20.96967 | 358 ft | 12 kts | 143° |
| 2026-05-06 11:06 | 52.17524 | 20.97033 | 356 ft | 11 kts | 151° |
| 2026-05-06 11:06 | 52.17497 | 20.97039 | 350 ft | 1 kts | 217° |
| 2026-05-06 11:07 | 52.17491 | 20.97014 | 349 ft | 4 kts | 244° |
| 2026-05-06 11:07 | 52.17478 | 20.96970 | 353 ft | 5 kts | 243° |
| 2026-05-06 11:07 | 52.17471 | 20.96951 | 348 ft | 0 kts | 243° |